Time;durP1;ratioP1;P1;durP2;ratioP2;P2;SDS_P1;SDS_P2;PMS_P1;PMS_P2;Temp;Humidity;BMP_temperature;BMP_pressure;BME280_temperature;BME280_humidity;BME280_pressure;Samples;Min_cycle;Max_cycle;Signal;HPM_P1;HPM_P2
2022/05/12 03:54:43;;;;;;;;;;;16.80;99.90;;;;;;4933835;29;19942;-95
2022/05/12 03:57:10;;;;;;;;;;;16.80;99.90;;;;;;4952996;28;20302;-91
2022/05/12 03:59:38;;;;;;;;;;;16.80;99.90;;;;;;4976176;28;19910;-91
2022/05/12 04:02:07;;;;;;;;;;;16.80;99.90;;;;;;4983536;28;20213;-90
2022/05/12 04:04:33;;;;;;;;;;;16.70;99.90;;;;;;4984447;28;19910;-91
2022/05/12 04:06:58;;;;;;;;;;;16.70;99.90;;;;;;4977380;28;19916;-90
2022/05/12 04:09:25;;;;;;;;;;;16.70;99.90;;;;;;4969537;28;20271;-91
2022/05/12 04:11:51;;;;;;;;;;;16.60;99.90;;;;;;4983800;28;19950;-93
2022/05/12 04:14:16;;;;;;;;;;;16.60;99.90;;;;;;4963218;28;20377;-90
2022/05/12 04:16:42;;;;;;;;;;;16.50;99.90;;;;;;4975034;28;19925;-90
2022/05/12 04:19:07;;;;;;;;;;;16.50;99.90;;;;;;4992664;28;19949;-90
2022/05/12 04:21:37;;;;;;;;;;;16.50;99.90;;;;;;4993260;28;19910;-90
2022/05/12 04:24:05;;;;;;;;;;;16.50;99.90;;;;;;4993067;28;20389;-90
2022/05/12 04:26:32;;;;;;;;;;;16.50;99.90;;;;;;5000562;28;19940;-90
2022/05/12 04:28:57;;;;;;;;;;;16.50;99.90;;;;;;4997013;28;19925;-90
2022/05/12 04:31:23;;;;;;;;;;;16.40;99.90;;;;;;4992501;28;19913;-90
2022/05/12 04:36:33;;;;;;;;;;;16.30;99.90;;;;;;4987614;28;20373;-90
2022/05/12 04:38:59;;;;;;;;;;;16.30;99.90;;;;;;4974723;28;19914;-90
2022/05/12 04:41:25;;;;;;;;;;;16.30;99.90;;;;;;4994550;28;19914;-89
2022/05/12 04:43:50;;;;;;;;;;;16.30;99.90;;;;;;4981856;28;19910;-90
2022/05/12 04:46:16;;;;;;;;;;;16.20;99.90;;;;;;4999107;28;19984;-90
2022/05/12 04:48:42;;;;;;;;;;;16.20;99.90;;;;;;4986238;28;20022;-91
2022/05/12 04:51:08;;;;;;;;;;;16.20;99.90;;;;;;4984945;28;19952;-90
2022/05/12 04:53:33;;;;;;;;;;;16.10;99.90;;;;;;5002146;28;20205;-90
2022/05/12 04:55:59;;;;;;;;;;;16.20;99.90;;;;;;4985571;28;19906;-89
2022/05/12 04:58:26;;;;;;;;;;;16.10;99.90;;;;;;4993337;28;19916;-89
2022/05/12 05:00:51;;;;;;;;;;;16.10;99.90;;;;;;4992823;28;19925;-88
2022/05/12 05:03:17;;;;;;;;;;;16.10;99.90;;;;;;4993442;28;19909;-88
2022/05/12 05:05:43;;;;;;;;;;;16.10;99.90;;;;;;4992225;28;19916;-87
2022/05/12 05:08:11;;;;;;;;;;;16.10;99.90;;;;;;4992418;28;20329;-87
2022/05/12 05:10:37;;;;;;;;;;;16.10;99.90;;;;;;4974526;28;19933;-88
2022/05/12 05:13:03;;;;;;;;;;;16.10;99.90;;;;;;4974459;28;20370;-88
2022/05/12 05:15:29;;;;;;;;;;;16.10;99.90;;;;;;4991990;28;19910;-87
2022/05/12 05:17:55;;;;;;;;;;;16.20;99.90;;;;;;4992006;28;20307;-88
2022/05/12 05:20:24;;;;;;;;;;;16.20;99.90;;;;;;4991090;28;19922;-88
2022/05/12 05:22:50;;;;;;;;;;;16.20;99.90;;;;;;4991217;28;19940;-88
2022/05/12 05:25:16;;;;;;;;;;;16.20;99.90;;;;;;4991017;28;19913;-88
2022/05/12 05:27:41;;;;;;;;;;;16.30;99.90;;;;;;4973754;28;20409;-87
2022/05/12 05:30:09;;;;;;;;;;;16.30;99.90;;;;;;4990933;28;19917;-88
2022/05/12 05:32:34;;;;;;;;;;;16.30;99.90;;;;;;4990877;28;19961;-87
2022/05/12 05:35:00;;;;;;;;;;;16.40;99.90;;;;;;4974207;28;19956;-87
2022/05/12 05:37:26;;;;;;;;;;;16.50;99.90;;;;;;4966111;28;19968;-88
2022/05/12 05:39:51;;;;;;;;;;;16.50;99.90;;;;;;4974178;28;19917;-88
2022/05/12 05:42:18;;;;;;;;;;;16.60;99.90;;;;;;4991969;28;19916;-87
2022/05/12 05:44:44;;;;;;;;;;;16.70;99.90;;;;;;4989398;28;19914;-88
2022/05/12 05:47:09;;;;;;;;;;;16.80;99.90;;;;;;4971363;28;19910;-87
2022/05/12 05:49:35;;;;;;;;;;;16.90;99.90;;;;;;4966721;28;19910;-87
2022/05/12 05:54:45;;;;;;;;;;;17.00;99.90;;;;;;4991592;28;19916;-88
2022/05/12 05:57:11;;;;;;;;;;;17.00;99.90;;;;;;4989630;28;19910;-88
2022/05/12 05:59:37;;;;;;;;;;;17.10;99.90;;;;;;4990806;28;20319;-88
2022/05/12 06:02:03;;;;;;;;;;;17.10;99.90;;;;;;4991113;28;20552;-88
2022/05/12 06:04:29;;;;;;;;;;;17.10;99.90;;;;;;4974173;28;20485;-88
2022/05/12 06:06:55;;;;;;;;;;;17.20;99.90;;;;;;4991033;28;20153;-88
2022/05/12 06:09:21;;;;;;;;;;;17.20;99.90;;;;;;4973648;28;20016;-88
2022/05/12 06:11:48;;;;;;;;;;;17.20;99.90;;;;;;4990928;28;20000;-88
2022/05/12 06:14:14;;;;;;;;;;;17.30;99.90;;;;;;4990928;28;19914;-88
2022/05/12 06:16:40;;;;;;;;;;;17.30;99.90;;;;;;4973221;28;20393;-88
2022/05/12 06:19:06;;;;;;;;;;;17.30;99.90;;;;;;4990705;28;20401;-88
2022/05/12 06:21:34;;;;;;;;;;;17.40;99.90;;;;;;4990611;28;19965;-88
2022/05/12 06:23:59;;;;;;;;;;;17.50;99.90;;;;;;4991060;28;20318;-88
2022/05/12 06:26:25;;;;;;;;;;;17.50;99.90;;;;;;4989272;28;19921;-88
2022/05/12 06:28:50;;;;;;;;;;;17.60;99.90;;;;;;4973627;28;19917;-88
2022/05/12 06:31:29;;;;;;;;;;;17.60;99.90;;;;;;4990434;28;19946;-88
2022/05/12 06:33:56;;;;;;;;;;;17.70;99.90;;;;;;4990366;28;20425;-88
2022/05/12 06:36:21;;;;;;;;;;;17.80;99.90;;;;;;4990263;28;19914;-88
2022/05/12 06:38:47;;;;;;;;;;;17.90;99.90;;;;;;4972921;28;20374;-88
2022/05/12 06:41:13;;;;;;;;;;;17.90;99.90;;;;;;4972854;28;19930;-88
2022/05/12 06:43:39;;;;;;;;;;;17.90;99.90;;;;;;4990425;28;19910;-88
2022/05/12 06:46:05;;;;;;;;;;;18.00;99.90;;;;;;4972613;28;20441;-88
2022/05/12 06:48:31;;;;;;;;;;;18.20;99.90;;;;;;4972848;28;19910;-88
2022/05/12 06:50:56;;;;;;;;;;;18.30;99.90;;;;;;4990059;28;19925;-88
2022/05/12 06:53:22;;;;;;;;;;;18.40;99.90;;;;;;4990102;28;19910;-88
2022/05/12 06:55:47;;;;;;;;;;;18.50;99.90;;;;;;4990291;28;19913;-88
2022/05/12 06:58:17;;;;;;;;;;;18.60;99.90;;;;;;4972557;28;19965;-88
2022/05/12 07:00:43;;;;;;;;;;;18.60;99.90;;;;;;4973854;28;19940;-88
2022/05/12 07:03:12;;;;;;;;;;;18.70;99.90;;;;;;4994011;28;19910;-88
2022/05/12 07:05:39;;;;;;;;;;;18.80;99.90;;;;;;4994726;28;20338;-88
2022/05/12 07:08:05;;;;;;;;;;;18.90;99.90;;;;;;4994201;28;19926;-88
2022/05/12 07:10:31;;;;;;;;;;;18.80;99.90;;;;;;4994233;28;19992;-88
2022/05/12 07:12:57;;;;;;;;;;;18.80;99.90;;;;;;4994005;28;20336;-88
2022/05/12 07:15:25;;;;;;;;;;;18.90;99.90;;;;;;4994132;28;20396;-88
2022/05/12 07:17:50;;;;;;;;;;;18.90;99.90;;;;;;4976373;28;19931;-88
2022/05/12 07:28:30;;;;;;;;;;;19.10;99.90;;;;;;4994058;28;19916;-88
2022/05/12 07:31:02;;;;;;;;;;;19.10;99.90;;;;;;4993591;28;20279;-87
2022/05/12 07:33:29;;;;;;;;;;;19.10;99.90;;;;;;4976061;28;20404;-88
2022/05/12 07:35:54;;;;;;;;;;;19.10;99.90;;;;;;4975871;28;19909;-88
2022/05/12 07:38:20;;;;;;;;;;;19.20;99.90;;;;;;4975938;28;20461;-88
2022/05/12 07:40:45;;;;;;;;;;;19.30;99.90;;;;;;4993285;28;19976;-88
2022/05/12 07:43:11;;;;;;;;;;;19.40;99.90;;;;;;4993634;28;20350;-88
2022/05/12 07:45:37;;;;;;;;;;;19.50;99.90;;;;;;4993497;28;19916;-88
2022/05/12 07:48:02;;;;;;;;;;;19.40;99.90;;;;;;4993558;28;20370;-88
2022/05/12 07:50:28;;;;;;;;;;;19.20;99.90;;;;;;4993416;28;19965;-88
2022/05/12 07:52:57;;;;;;;;;;;19.00;99.90;;;;;;4975887;28;19921;-87
2022/05/12 07:55:22;;;;;;;;;;;19.10;99.90;;;;;;4993173;28;19938;-87
2022/05/12 07:57:48;;;;;;;;;;;19.40;99.90;;;;;;4993593;28;19910;-88
2022/05/12 08:00:13;;;;;;;;;;;19.30;99.90;;;;;;4992919;28;19917;-87
2022/05/12 08:02:39;;;;;;;;;;;19.40;99.90;;;;;;4993072;28;19948;-87
2022/05/12 08:05:05;;;;;;;;;;;19.60;99.90;;;;;;4993199;28;20587;-88
2022/05/12 08:07:31;;;;;;;;;;;19.40;99.90;;;;;;4975506;28;19909;-88
2022/05/12 08:09:58;;;;;;;;;;;19.30;99.90;;;;;;4993015;28;20126;-88
2022/05/12 08:12:24;;;;;;;;;;;19.10;99.90;;;;;;4992458;28;19910;-88
2022/05/12 08:14:50;;;;;;;;;;;18.70;99.90;;;;;;4975366;28;20012;-88
2022/05/12 08:17:15;;;;;;;;;;;18.80;99.90;;;;;;4975159;28;19914;-88
2022/05/12 08:19:41;;;;;;;;;;;18.70;99.90;;;;;;4992872;28;19918;-88
2022/05/12 08:22:07;;;;;;;;;;;18.60;99.90;;;;;;4991441;28;20053;-88
2022/05/12 08:24:32;;;;;;;;;;;18.70;99.90;;;;;;4993184;28;19953;-88
2022/05/12 08:26:58;;;;;;;;;;;18.60;99.90;;;;;;4992731;28;19945;-87
2022/05/12 08:29:23;;;;;;;;;;;18.70;99.90;;;;;;4984986;28;20263;-88
2022/05/12 08:31:49;;;;;;;;;;;18.60;99.90;;;;;;4992672;28;20392;-88
2022/05/12 08:34:14;;;;;;;;;;;18.60;99.90;;;;;;4991430;28;19910;-88
2022/05/12 08:36:40;;;;;;;;;;;18.60;99.90;;;;;;4992584;28;20318;-88
2022/05/12 08:39:05;;;;;;;;;;;18.90;99.90;;;;;;4992760;28;20333;-88
2022/05/12 08:41:46;;;;;;;;;;;19.00;99.90;;;;;;4992337;28;19913;-88
2022/05/12 08:44:14;;;;;;;;;;;19.10;99.90;;;;;;4992684;28;19910;-88
2022/05/12 08:46:43;;;;;;;;;;;19.30;99.90;;;;;;4992334;28;20012;-88
2022/05/12 08:49:20;;;;;;;;;;;19.60;99.90;;;;;;4992693;28;19957;-87
2022/05/12 08:51:51;;;;;;;;;;;19.70;99.90;;;;;;4992255;28;20391;-88
2022/05/12 08:54:18;;;;;;;;;;;19.90;99.90;;;;;;4975209;28;19910;-88
2022/05/12 08:56:43;;;;;;;;;;;20.20;99.90;;;;;;4992064;28;19910;-88
2022/05/12 08:59:09;;;;;;;;;;;20.50;99.90;;;;;;4992053;28;19916;-88
2022/05/12 09:01:39;;;;;;;;;;;20.30;99.90;;;;;;4990769;28;20321;-88
2022/05/12 09:04:37;;;;;;;;;;;20.40;99.90;;;;;;4992233;28;19910;-88
2022/05/12 09:07:08;;;;;;;;;;;20.70;99.90;;;;;;4969318;28;19952;-88
2022/05/12 09:09:33;;;;;;;;;;;20.50;99.90;;;;;;4992144;28;20285;-88
2022/05/12 09:12:05;;;;;;;;;;;20.40;99.90;;;;;;4974518;28;19910;-89
2022/05/12 09:14:36;;;;;;;;;;;20.50;99.90;;;;;;4974239;28;19945;-88
2022/05/12 09:17:01;;;;;;;;;;;20.30;99.90;;;;;;4974153;28;20334;-88
2022/05/12 09:19:27;;;;;;;;;;;20.30;99.90;;;;;;4974159;28;19914;-88
2022/05/12 09:21:54;;;;;;;;;;;20.50;99.90;;;;;;4974323;28;19913;-88
2022/05/12 09:24:20;;;;;;;;;;;20.40;99.90;;;;;;4973903;28;20382;-88
2022/05/12 09:26:51;;;;;;;;;;;20.50;99.90;;;;;;4991422;28;19910;-88
2022/05/12 09:29:16;;;;;;;;;;;20.90;99.90;;;;;;4974188;28;19942;-88
2022/05/12 09:31:43;;;;;;;;;;;21.00;99.90;;;;;;4991611;28;19910;-88
2022/05/12 09:34:32;;;;;;;;;;;20.90;99.90;;;;;;4991602;28;20378;-88
2022/05/12 09:37:28;;;;;;;;;;;20.80;99.90;;;;;;4985711;28;19910;-88
2022/05/12 09:39:58;;;;;;;;;;;21.20;99.90;;;;;;4961898;28;19937;-88
2022/05/12 09:42:27;;;;;;;;;;;21.20;99.90;;;;;;4980064;28;19920;-88
2022/05/12 09:44:56;;;;;;;;;;;21.30;99.90;;;;;;4991150;28;20359;-88
2022/05/12 09:47:21;;;;;;;;;;;21.00;99.90;;;;;;4970763;28;20410;-88
2022/05/12 09:49:47;;;;;;;;;;;20.80;99.90;;;;;;4972410;28;19929;-88
2022/05/12 09:52:22;;;;;;;;;;;20.70;99.90;;;;;;4970409;28;19929;-88
2022/05/12 09:54:48;;;;;;;;;;;20.70;99.90;;;;;;4972905;28;19949;-90
2022/05/12 09:57:14;;;;;;;;;;;20.70;99.90;;;;;;4991024;28;19933;-88
2022/05/12 09:59:41;;;;;;;;;;;20.60;99.90;;;;;;4991011;28;20386;-88
2022/05/12 10:07:53;;;;;;;;;;;20.70;99.90;;;;;;4973710;28;20400;-89
2022/05/12 10:08:20;;;;;;;;;;;20.40;99.90;;;;;;4991438;28;19917;-88
2022/05/12 10:10:53;;;;;;;;;;;20.40;99.90;;;;;;4988574;28;19917;-88
2022/05/12 10:13:23;;;;;;;;;;;20.40;99.90;;;;;;4974064;28;19941;-88
2022/05/12 10:15:49;;;;;;;;;;;20.20;99.90;;;;;;4990927;28;20442;-88
2022/05/12 10:18:35;;;;;;;;;;;20.20;99.90;;;;;;4990807;28;20018;-88
2022/05/12 10:21:09;;;;;;;;;;;20.50;99.90;;;;;;4962711;28;19922;-88
2022/05/12 10:24:13;;;;;;;;;;;20.60;99.90;;;;;;4990575;28;19917;-88
2022/05/12 10:26:59;;;;;;;;;;;20.90;99.90;;;;;;4932820;29;20346;-88
2022/05/12 10:29:24;;;;;;;;;;;20.90;99.90;;;;;;4950408;28;20315;-88
2022/05/12 10:32:05;;;;;;;;;;;21.10;99.90;;;;;;4974163;28;19910;-89
2022/05/12 10:34:36;;;;;;;;;;;21.00;99.90;;;;;;4992200;28;19910;-89
2022/05/12 10:37:02;;;;;;;;;;;21.00;99.90;;;;;;4972150;28;19910;-89
2022/05/12 10:39:33;;;;;;;;;;;21.00;99.90;;;;;;4972690;28;19972;-88
2022/05/12 10:42:12;;;;;;;;;;;21.30;99.90;;;;;;4972884;28;20194;-89
2022/05/12 10:44:38;;;;;;;;;;;21.40;99.90;;;;;;4990431;28;19917;-89
2022/05/12 10:47:03;;;;;;;;;;;21.30;99.90;;;;;;4990151;28;19913;-90
2022/05/12 10:49:48;;;;;;;;;;;21.20;99.90;;;;;;4990777;28;19932;-88
2022/05/12 10:52:19;;;;;;;;;;;21.30;99.90;;;;;;4990614;28;19929;-88
2022/05/12 10:54:44;;;;;;;;;;;21.60;99.90;;;;;;4969731;28;20467;-89
2022/05/12 10:57:16;;;;;;;;;;;21.40;99.90;;;;;;4988979;28;19925;-87
2022/05/12 10:59:41;;;;;;;;;;;21.80;99.90;;;;;;4973197;28;19948;-87
2022/05/12 11:02:13;;;;;;;;;;;21.70;99.90;;;;;;4990299;28;20275;-89
2022/05/12 11:04:43;;;;;;;;;;;21.70;99.90;;;;;;4972953;28;20066;-89
2022/05/12 11:07:18;;;;;;;;;;;21.40;99.90;;;;;;4972959;28;19909;-88
2022/05/12 11:09:48;;;;;;;;;;;21.40;99.90;;;;;;4972765;28;19909;-88
2022/05/12 11:12:14;;;;;;;;;;;21.10;99.90;;;;;;4973030;28;19953;-88
2022/05/12 11:14:44;;;;;;;;;;;21.10;99.90;;;;;;4969808;28;19969;-89
2022/05/12 11:17:09;;;;;;;;;;;21.20;99.90;;;;;;4967050;28;20398;-88
2022/05/12 11:19:36;;;;;;;;;;;21.70;99.90;;;;;;4982250;28;19914;-88
2022/05/12 11:22:30;;;;;;;;;;;22.00;99.90;;;;;;4990069;28;19914;-88
2022/05/12 11:25:02;;;;;;;;;;;22.30;99.90;;;;;;4990014;28;19914;-88
2022/05/12 11:27:44;;;;;;;;;;;22.20;99.90;;;;;;4990282;28;19997;-89
2022/05/12 11:30:16;;;;;;;;;;;22.40;99.90;;;;;;4990264;28;19916;-88
2022/05/12 11:32:47;;;;;;;;;;;22.60;99.90;;;;;;4990557;28;20019;-88
2022/05/12 11:35:17;;;;;;;;;;;22.30;99.90;;;;;;4989943;28;19997;-88
2022/05/12 11:37:55;;;;;;;;;;;22.10;99.90;;;;;;4990182;28;20373;-88
2022/05/12 11:40:40;;;;;;;;;;;22.30;99.90;;;;;;4989518;28;19968;-89
2022/05/12 11:46:23;;;;;;;;;;;22.10;99.90;;;;;;4990094;28;20265;-88
2022/05/12 11:48:49;;;;;;;;;;;22.10;99.90;;;;;;4939840;28;19915;-88
2022/05/12 11:51:21;;;;;;;;;;;22.20;99.90;;;;;;4985303;28;19926;-89
2022/05/12 11:53:53;;;;;;;;;;;22.10;99.90;;;;;;4956565;28;20114;-88
2022/05/12 11:56:37;;;;;;;;;;;22.60;99.90;;;;;;4956416;28;19910;-88
2022/05/12 11:59:17;;;;;;;;;;;22.90;99.90;;;;;;4973769;28;20383;-89
2022/05/12 12:01:49;;;;;;;;;;;22.90;99.90;;;;;;4973706;28;19970;-89
2022/05/12 12:04:14;;;;;;;;;;;22.90;99.90;;;;;;4974014;28;19960;-88
2022/05/12 12:06:42;;;;;;;;;;;23.10;99.90;;;;;;4974012;28;19957;-88
2022/05/12 12:09:26;;;;;;;;;;;23.10;99.90;;;;;;4973797;28;19910;-88
2022/05/12 12:11:52;;;;;;;;;;;23.60;99.90;;;;;;4956021;28;19911;-88
2022/05/12 12:14:37;;;;;;;;;;;23.30;99.90;;;;;;4973747;28;19965;-88
2022/05/12 12:17:07;;;;;;;;;;;23.20;99.90;;;;;;4955994;28;19910;-88
2022/05/12 12:19:46;;;;;;;;;;;23.30;99.90;;;;;;4955898;28;20264;-89
2022/05/12 12:22:31;;;;;;;;;;;23.10;99.90;;;;;;4956050;28;19921;-88
2022/05/12 12:24:56;;;;;;;;;;;23.30;99.90;;;;;;4973308;28;19996;-89
2022/05/12 12:27:28;;;;;;;;;;;23.70;99.90;;;;;;4973487;28;20005;-89
2022/05/12 12:30:14;;;;;;;;;;;23.80;99.90;;;;;;4974008;28;20445;-88
2022/05/12 12:32:40;;;;;;;;;;;23.60;99.90;;;;;;4955753;28;19917;-89
2022/05/12 12:35:13;;;;;;;;;;;23.60;99.90;;;;;;4973301;28;19911;-88
2022/05/12 12:37:47;;;;;;;;;;;23.80;99.90;;;;;;4973058;28;19917;-88
2022/05/12 12:40:32;;;;;;;;;;;23.80;99.90;;;;;;4955627;28;20282;-89
2022/05/12 12:43:10;;;;;;;;;;;24.20;99.90;;;;;;4962261;28;19918;-88
2022/05/12 12:45:35;;;;;;;;;;;24.40;99.60;;;;;;4955508;28;20268;-88
2022/05/12 12:48:07;;;;;;;;;;;24.70;99.00;;;;;;4973361;28;19910;-88
2022/05/12 12:50:33;;;;;;;;;;;24.50;99.20;;;;;;4975275;28;19933;-89
2022/05/12 12:52:58;;;;;;;;;;;24.50;99.50;;;;;;4992006;28;20377;-88
2022/05/12 12:58:14;;;;;;;;;;;25.10;98.40;;;;;;4991234;28;20389;-88
2022/05/12 13:00:41;;;;;;;;;;;25.10;98.70;;;;;;4974030;28;20049;-88
2022/05/12 13:03:19;;;;;;;;;;;24.90;98.70;;;;;;4991628;28;19968;-88
2022/05/12 13:05:44;;;;;;;;;;;24.60;98.80;;;;;;4991666;28;19910;-88
2022/05/12 13:08:21;;;;;;;;;;;24.70;99.10;;;;;;4992158;28;19909;-89
2022/05/12 13:10:47;;;;;;;;;;;24.80;98.80;;;;;;4992219;28;19917;-88
2022/05/12 13:13:13;;;;;;;;;;;24.00;99.30;;;;;;4991802;28;19913;-88
2022/05/12 13:15:41;;;;;;;;;;;23.60;99.90;;;;;;4991565;28;20282;-88
2022/05/12 13:18:15;;;;;;;;;;;24.00;99.90;;;;;;4973399;28;20458;-88
2022/05/12 13:20:42;;;;;;;;;;;24.50;99.40;;;;;;4991321;28;19922;-87
2022/05/12 13:23:10;;;;;;;;;;;24.70;98.60;;;;;;4991277;28;19909;-88
2022/05/12 13:25:37;;;;;;;;;;;24.70;98.70;;;;;;4991194;28;19981;-88
2022/05/12 13:28:08;;;;;;;;;;;24.30;99.30;;;;;;4991611;28;19910;-88
2022/05/12 13:30:36;;;;;;;;;;;24.10;99.20;;;;;;4991649;28;20058;-88
2022/05/12 13:33:21;;;;;;;;;;;24.20;99.40;;;;;;4991230;28;19965;-88
2022/05/12 13:35:55;;;;;;;;;;;24.80;98.60;;;;;;4990578;28;20365;-88
2022/05/12 13:38:21;;;;;;;;;;;24.70;98.60;;;;;;4991309;28;19945;-88
2022/05/12 13:40:52;;;;;;;;;;;24.70;98.50;;;;;;4990840;28;19922;-88
2022/05/12 13:43:20;;;;;;;;;;;24.70;98.90;;;;;;4990882;28;19910;-88
2022/05/12 13:45:47;;;;;;;;;;;25.10;98.70;;;;;;4990709;28;19997;-88
2022/05/12 13:48:21;;;;;;;;;;;25.40;98.10;;;;;;4973430;28;19933;-88
2022/05/12 13:50:48;;;;;;;;;;;26.10;97.80;;;;;;4990937;28;19972;-88
2022/05/12 13:53:34;;;;;;;;;;;26.60;96.70;;;;;;4991020;28;19920;-88
2022/05/12 13:56:10;;;;;;;;;;;26.50;96.70;;;;;;4972669;28;20012;-88
2022/05/12 13:58:50;;;;;;;;;;;27.00;96.20;;;;;;4991020;28;19956;-88
2022/05/12 14:01:23;;;;;;;;;;;27.10;95.60;;;;;;4990649;28;20350;-88
2022/05/12 14:04:01;;;;;;;;;;;27.30;95.80;;;;;;4989260;28;19920;-88
2022/05/12 14:06:31;;;;;;;;;;;27.30;95.90;;;;;;4991505;28;19910;-89
2022/05/12 14:09:05;;;;;;;;;;;26.70;96.00;;;;;;4973628;28;19969;-88
2022/05/12 14:11:31;;;;;;;;;;;26.40;96.40;;;;;;4989761;28;19921;-88
2022/05/12 14:19:37;;;;;;;;;;;26.20;96.10;;;;;;4990412;28;19936;-88
2022/05/12 14:22:08;;;;;;;;;;;25.50;96.70;;;;;;4990540;28;19917;-89
2022/05/12 14:24:34;;;;;;;;;;;24.90;97.30;;;;;;4990184;28;19917;-88
2022/05/12 14:27:00;;;;;;;;;;;24.30;97.90;;;;;;4990238;28;20001;-88
2022/05/12 14:29:26;;;;;;;;;;;23.90;98.50;;;;;;4973328;28;20045;-88
2022/05/12 14:31:52;;;;;;;;;;;23.60;98.60;;;;;;4990401;28;19916;-89
2022/05/12 14:34:19;;;;;;;;;;;23.80;98.50;;;;;;4990309;28;20001;-88
2022/05/12 14:36:49;;;;;;;;;;;24.10;98.30;;;;;;4990338;28;20032;-88
2022/05/12 14:39:15;;;;;;;;;;;24.00;98.30;;;;;;4990240;28;19917;-88
2022/05/12 14:41:41;;;;;;;;;;;23.70;98.70;;;;;;4972597;28;19914;-88
2022/05/12 14:44:07;;;;;;;;;;;24.20;98.30;;;;;;4990196;28;19921;-88
2022/05/12 14:46:35;;;;;;;;;;;25.40;97.00;;;;;;4972466;28;19916;-88
2022/05/12 14:49:02;;;;;;;;;;;25.80;96.40;;;;;;4990390;28;19967;-88
2022/05/12 14:51:28;;;;;;;;;;;25.70;96.60;;;;;;4989997;28;19922;-88
2022/05/12 14:53:53;;;;;;;;;;;26.20;95.80;;;;;;4972676;28;19965;-88
2022/05/12 14:56:19;;;;;;;;;;;26.30;95.50;;;;;;4990005;28;19909;-88
2022/05/12 14:58:44;;;;;;;;;;;25.60;95.90;;;;;;4990260;28;19966;-88
2022/05/12 15:01:10;;;;;;;;;;;25.60;96.70;;;;;;4989988;28;19924;-88
2022/05/12 15:03:36;;;;;;;;;;;26.20;97.10;;;;;;4972446;28;19942;-88
2022/05/12 15:06:02;;;;;;;;;;;26.40;96.30;;;;;;4972435;28;19914;-88
2022/05/12 15:08:28;;;;;;;;;;;25.90;96.90;;;;;;4989777;28;19917;-88
2022/05/12 15:10:54;;;;;;;;;;;26.90;95.40;;;;;;4989817;28;20016;-88
2022/05/12 15:13:20;;;;;;;;;;;27.20;95.50;;;;;;4989931;28;20504;-88
2022/05/12 15:15:45;;;;;;;;;;;27.60;95.10;;;;;;4989902;28;20074;-88
2022/05/12 15:18:11;;;;;;;;;;;28.00;94.50;;;;;;4990017;28;19910;-89
2022/05/12 15:20:37;;;;;;;;;;;27.80;94.40;;;;;;4990151;28;19953;-88
2022/05/12 15:23:03;;;;;;;;;;;28.10;94.20;;;;;;4992985;28;19949;-88
2022/05/12 15:25:29;;;;;;;;;;;26.80;95.00;;;;;;4993382;28;20369;-88
2022/05/12 15:27:54;;;;;;;;;;;26.40;95.20;;;;;;4976238;28;19909;-88
2022/05/12 15:30:21;;;;;;;;;;;26.10;95.80;;;;;;4976074;28;20392;-88
2022/05/12 15:32:46;;;;;;;;;;;26.20;96.20;;;;;;4993375;28;19921;-88
2022/05/12 15:35:13;;;;;;;;;;;26.30;96.30;;;;;;4993686;28;19930;-88
2022/05/12 15:37:38;;;;;;;;;;;26.40;96.00;;;;;;4993760;28;19956;-88
2022/05/12 15:40:04;;;;;;;;;;;26.20;95.80;;;;;;4993363;28;19918;-88
2022/05/12 15:42:30;;;;;;;;;;;25.50;96.30;;;;;;4993422;28;19909;-88
2022/05/12 15:44:55;;;;;;;;;;;25.10;96.60;;;;;;4993590;28;20385;-89
2022/05/12 15:47:25;;;;;;;;;;;24.70;97.10;;;;;;4993255;28;19968;-88
2022/05/12 15:49:52;;;;;;;;;;;24.30;97.60;;;;;;4992793;28;19914;-88
2022/05/12 15:52:18;;;;;;;;;;;24.60;97.20;;;;;;4975316;28;19973;-88
2022/05/12 15:54:43;;;;;;;;;;;24.70;97.20;;;;;;4993455;28;19909;-88
2022/05/12 15:57:10;;;;;;;;;;;24.60;97.80;;;;;;4976257;28;20326;-88
2022/05/12 15:59:35;;;;;;;;;;;24.70;98.10;;;;;;4993457;28;20285;-88
2022/05/12 16:02:02;;;;;;;;;;;24.60;97.70;;;;;;4993401;28;20005;-88
2022/05/12 16:04:27;;;;;;;;;;;24.40;98.30;;;;;;4993128;28;19941;-89
2022/05/12 16:06:53;;;;;;;;;;;24.20;98.00;;;;;;4992978;28;19961;-87
2022/05/12 16:09:19;;;;;;;;;;;24.40;98.60;;;;;;4965980;28;19917;-89
2022/05/12 16:14:24;;;;;;;;;;;23.70;99.80;;;;;;4974378;28;19910;-88
2022/05/12 16:16:54;;;;;;;;;;;23.20;99.90;;;;;;4956958;28;19910;-89
2022/05/12 16:19:20;;;;;;;;;;;22.90;99.90;;;;;;4974587;28;20295;-90
2022/05/12 16:21:46;;;;;;;;;;;23.00;99.90;;;;;;4969793;28;20445;-90
2022/05/12 16:24:12;;;;;;;;;;;23.10;99.90;;;;;;4975116;28;19914;-83
2022/05/12 16:26:39;;;;;;;;;;;23.10;99.90;;;;;;4973727;28;19914;-80
2022/05/12 16:29:07;;;;;;;;;;;22.70;99.90;;;;;;4973882;28;19913;-80
2022/05/12 16:31:33;;;;;;;;;;;22.30;99.90;;;;;;4973866;28;20012;-82
2022/05/12 16:33:58;;;;;;;;;;;22.20;99.90;;;;;;4973270;28;19959;-82
2022/05/12 16:36:24;;;;;;;;;;;21.80;99.90;;;;;;4973756;28;19917;-82
2022/05/12 16:38:49;;;;;;;;;;;21.80;99.90;;;;;;4973956;28;19917;-83
2022/05/12 16:41:15;;;;;;;;;;;21.60;99.90;;;;;;4973335;28;19919;-82
2022/05/12 16:43:40;;;;;;;;;;;21.50;99.90;;;;;;4973600;28;19911;-82
2022/05/12 16:46:06;;;;;;;;;;;21.40;99.90;;;;;;4973380;28;19933;-82
2022/05/12 16:48:32;;;;;;;;;;;21.30;99.90;;;;;;4973413;28;19914;-83
2022/05/12 16:50:57;;;;;;;;;;;21.00;99.90;;;;;;4979198;28;19973;-82
2022/05/12 16:53:24;;;;;;;;;;;21.00;99.90;;;;;;4986208;28;19910;-81
2022/05/12 16:55:53;;;;;;;;;;;21.00;99.90;;;;;;4992433;28;19916;-81
2022/05/12 16:58:19;;;;;;;;;;;21.00;99.90;;;;;;4985831;28;19941;-79
2022/05/12 17:00:45;;;;;;;;;;;20.80;99.90;;;;;;4992006;28;19918;-80
2022/05/12 17:03:11;;;;;;;;;;;20.70;99.90;;;;;;4992526;28;19921;-80
2022/05/12 17:05:37;;;;;;;;;;;20.70;99.90;;;;;;4992136;28;19947;-80
2022/05/12 17:08:04;;;;;;;;;;;20.60;99.90;;;;;;4992226;28;19964;-80
2022/05/12 17:10:29;;;;;;;;;;;20.40;99.90;;;;;;4992134;28;20000;-80
2022/05/12 17:12:55;;;;;;;;;;;20.20;99.90;;;;;;4991945;28;20466;-80
2022/05/12 17:15:22;;;;;;;;;;;20.00;99.90;;;;;;4991968;28;20138;-80
2022/05/12 17:17:47;;;;;;;;;;;19.90;99.90;;;;;;4991672;28;19910;-81
2022/05/12 17:20:13;;;;;;;;;;;20.00;99.90;;;;;;4991952;28;19918;-87
2022/05/12 17:22:38;;;;;;;;;;;20.00;99.90;;;;;;4974568;28;19910;-85
2022/05/12 17:25:05;;;;;;;;;;;19.90;99.90;;;;;;4991817;28;19910;-85
2022/05/12 17:27:31;;;;;;;;;;;19.70;99.90;;;;;;4991692;28;19910;-86
2022/05/12 17:29:56;;;;;;;;;;;19.60;99.90;;;;;;4974015;28;19993;-85
2022/05/12 17:32:23;;;;;;;;;;;19.60;99.90;;;;;;4991316;28;20009;-85
2022/05/12 17:34:48;;;;;;;;;;;19.60;99.90;;;;;;4991366;28;19917;-84
2022/05/12 17:37:14;;;;;;;;;;;19.50;99.90;;;;;;4991344;28;19909;-85
2022/05/12 17:39:39;;;;;;;;;;;19.40;99.90;;;;;;4991483;28;20010;-85
2022/05/12 17:42:05;;;;;;;;;;;19.20;99.90;;;;;;4991124;28;20008;-85
2022/05/12 17:44:33;;;;;;;;;;;19.20;99.90;;;;;;4991108;28;19957;-85
2022/05/12 17:47:00;;;;;;;;;;;19.20;99.90;;;;;;4991121;28;19957;-86
2022/05/12 17:49:26;;;;;;;;;;;19.10;99.90;;;;;;4991283;28;19957;-85
2022/05/12 17:51:52;;;;;;;;;;;18.90;99.90;;;;;;4990976;28;19925;-84
2022/05/12 17:54:17;;;;;;;;;;;18.90;99.90;;;;;;4990952;28;19942;-85
2022/05/12 17:56:43;;;;;;;;;;;19.00;99.90;;;;;;4973627;28;19938;-84
2022/05/12 17:59:08;;;;;;;;;;;19.00;99.90;;;;;;4990941;28;19910;-83
2022/05/12 18:01:34;;;;;;;;;;;19.00;99.90;;;;;;4989681;28;19921;-83
2022/05/12 18:03:59;;;;;;;;;;;18.90;99.90;;;;;;4973660;28;19957;-83
2022/05/12 18:06:25;;;;;;;;;;;18.90;99.90;;;;;;4973798;28;19910;-83
2022/05/12 18:08:51;;;;;;;;;;;19.00;99.90;;;;;;4991033;28;19917;-83
2022/05/12 18:11:21;;;;;;;;;;;19.10;99.90;;;;;;4991090;28;19921;-82
2022/05/12 18:13:46;;;;;;;;;;;19.10;99.90;;;;;;4990558;28;19914;-83
2022/05/12 18:16:13;;;;;;;;;;;19.20;99.90;;;;;;4990893;28;20446;-83
2022/05/12 18:18:39;;;;;;;;;;;19.10;99.90;;;;;;4990926;28;20173;-83
2022/05/12 18:21:05;;;;;;;;;;;19.10;99.90;;;;;;4990936;28;20227;-83
2022/05/12 18:23:30;;;;;;;;;;;19.10;99.90;;;;;;4991011;28;20008;-83
2022/05/12 18:25:56;;;;;;;;;;;19.10;99.90;;;;;;4990624;28;19917;-83
2022/05/12 18:28:21;;;;;;;;;;;19.20;99.90;;;;;;4990668;28;19910;-83
2022/05/12 18:30:48;;;;;;;;;;;19.10;99.90;;;;;;4990704;28;20029;-83
2022/05/12 18:33:14;;;;;;;;;;;19.00;99.90;;;;;;4990757;28;19957;-83
2022/05/12 18:35:43;;;;;;;;;;;18.90;99.90;;;;;;4990787;28;20008;-83
2022/05/12 18:38:13;;;;;;;;;;;19.00;99.90;;;;;;4990528;28;19910;-83
2022/05/12 18:40:39;;;;;;;;;;;18.90;99.90;;;;;;4990613;28;19922;-83
2022/05/12 18:43:05;;;;;;;;;;;18.70;99.90;;;;;;4990491;28;19920;-83
2022/05/12 18:45:31;;;;;;;;;;;18.80;99.90;;;;;;4990411;28;19913;-83
2022/05/12 18:47:57;;;;;;;;;;;18.70;99.90;;;;;;4990525;28;19917;-83